createdAt,value
2023-04-20T00:01:16.145Z,81.41091260729702
2023-04-20T00:04:16.653Z,81.42934512563363
2023-04-20T00:07:16.898Z,81.35436706850112
2023-04-20T00:11:15.812Z,81.52115796995
2023-04-20T00:14:16.618Z,81.57450269290129
2023-04-20T00:17:16.251Z,82.02119730285425
2023-04-20T00:21:16.041Z,82.49514149047441
2023-04-20T00:24:16.258Z,82.44422356183028
2023-04-20T00:27:16.088Z,82.60581859274633
2023-04-20T00:31:15.880Z,82.524814926122
2023-04-20T00:34:16.593Z,82.60796800526745
2023-04-20T00:37:16.298Z,82.4604514759924
2023-04-20T00:41:16.558Z,82.66333835134618
2023-04-20T00:44:16.906Z,82.79316079354057
2023-04-20T00:47:16.839Z,82.77870347302824
2023-04-20T00:51:17.061Z,82.93958073839727
2023-04-20T00:54:16.848Z,83.33381606174076
2023-04-20T00:57:19.084Z,83.08951606018617
2023-04-20T01:01:17.924Z,83.63564117944996
2023-04-20T01:04:16.985Z,83.58185649465446
2023-04-20T01:07:16.334Z,83.68820072132701
2023-04-20T01:11:16.350Z,84.08501192634031
2023-04-20T01:14:16.690Z,83.98787544537319
2023-04-20T01:17:17.611Z,84.05614383123374
2023-04-20T01:21:19.205Z,84.45517129133259
2023-04-20T01:24:16.657Z,84.61337073883195
2023-04-20T01:27:17.677Z,84.63777698284254
2023-04-20T01:31:15.688Z,84.7939357610442
2023-04-20T01:34:17.789Z,85.23262256819287
2023-04-20T01:37:16.248Z,85.05800976538065
2023-04-20T01:41:16.319Z,85.29431834989482
2023-04-20T01:44:16.734Z,85.19652934073567
2023-04-20T01:47:17.258Z,85.1993416142335
2023-04-20T01:51:16.167Z,85.38282815590452
2023-04-20T01:54:16.619Z,85.2879799383257
2023-04-20T01:57:16.681Z,85.54453208494252
2023-04-20T02:01:16.150Z,85.75272516450302
2023-04-20T02:04:17.460Z,85.9952680171349
2023-04-20T02:07:16.900Z,85.95664927990703
2023-04-20T02:11:15.885Z,86.44626041485093
2023-04-20T02:14:16.393Z,86.61392413478916
2023-04-20T02:17:16.200Z,86.74301754995649
2023-04-20T02:21:16.287Z,86.60935641597841
2023-04-20T02:24:17.797Z,87.26573371183996
2023-04-20T02:27:16.589Z,87.73269563291208
2023-04-20T02:31:16.392Z,88.78670966669533
2023-04-20T02:34:16.548Z,88.91603975793952
2023-04-20T02:37:16.549Z,89.21568314076978
2023-04-20T02:41:15.859Z,88.8292666582606
2023-04-20T02:44:16.374Z,88.24447710442641
2023-04-20T02:47:16.464Z,87.94449321851921
2023-04-20T02:51:16.576Z,87.977194797753
2023-04-20T02:54:16.861Z,88.08555600638367
2023-04-20T02:57:17.039Z,88.43515720218917
2023-04-20T03:01:16.696Z,89.38888958541828
2023-04-20T03:04:16.358Z,89.94905611041786
2023-04-20T03:07:16.701Z,90.38213233730956
2023-04-20T03:11:16.154Z,91.16124007710019
2023-04-20T03:14:17.019Z,91.12494604254901
2023-04-20T03:17:17.023Z,90.91712887279917
2023-04-20T03:21:16.515Z,91.21143947954839
2023-04-20T03:24:17.238Z,91.06873314668215
2023-04-20T03:27:16.915Z,91.30061384523168
2023-04-20T03:31:16.617Z,91.6019405176335
2023-04-20T03:34:17.078Z,92.27304126793551
2023-04-20T03:41:17.074Z,93.28702815213312
2023-04-20T03:44:16.929Z,93.46491889505512
2023-04-20T03:47:16.920Z,93.38410634659832
2023-04-20T03:51:16.142Z,93.38037712503586
2023-04-20T03:54:16.654Z,92.9826803236059
2023-04-20T03:57:16.469Z,92.91098204960613
2023-04-20T04:01:15.772Z,92.69170167784057
2023-04-20T04:04:16.119Z,92.0756738200293
2023-04-20T04:07:16.065Z,91.67922903860385
2023-04-20T04:11:16.341Z,91.49746137981909
2023-04-20T04:14:16.253Z,91.30259016210292
2023-04-20T04:17:16.660Z,91.22690194556279
2023-04-20T04:21:15.713Z,91.16110520242538
2023-04-20T04:24:17.202Z,91.20598075257999
2023-04-20T04:27:17.063Z,91.23710435234102
2023-04-20T04:31:17.702Z,91.31879342625942
2023-04-20T04:34:18.166Z,91.11490713000194
2023-04-20T04:37:16.052Z,91.43877211953777
2023-04-20T04:41:17.773Z,91.85489163287242
2023-04-20T04:44:16.835Z,92.22581121847658
2023-04-20T04:47:17.930Z,92.5799266588247
2023-04-20T04:51:16.063Z,92.97024746122699
2023-04-20T04:54:16.255Z,93.21624715675925
2023-04-20T04:57:16.253Z,93.66098245135107
2023-04-20T05:01:16.061Z,94.77216046681242
2023-04-20T05:04:16.849Z,95.31663852497702
2023-04-20T05:07:17.317Z,95.41691437168434
2023-04-20T05:11:15.952Z,96.0903192121053
2023-04-20T05:14:16.324Z,96.60535069389816
2023-04-20T05:17:16.276Z,97.81978250213292
2023-04-20T05:21:15.932Z,99.14258280389434
2023-04-20T05:24:17.622Z,100
2023-04-20T05:27:16.316Z,99.99470219482612
2023-04-20T05:31:16.036Z,100
2023-04-20T05:34:16.620Z,100
2023-04-20T05:37:16.532Z,100
2023-04-20T05:41:15.996Z,100
2023-04-20T05:44:16.462Z,100
2023-04-20T05:47:16.393Z,100
2023-04-20T05:51:15.906Z,100
2023-04-20T05:54:16.414Z,100
2023-04-20T05:57:16.370Z,100
2023-04-20T06:01:15.905Z,100
2023-04-20T06:04:16.765Z,100
2023-04-20T06:07:16.792Z,100
2023-04-20T06:11:16.294Z,100
2023-04-20T06:14:17.287Z,100
2023-04-20T06:17:16.496Z,100
2023-04-20T06:21:17.449Z,100
2023-04-20T06:24:16.230Z,100
2023-04-20T06:27:16.207Z,100
2023-04-20T06:31:16.562Z,100
2023-04-20T06:34:16.529Z,100
2023-04-20T06:37:16.491Z,100
2023-04-20T06:41:16.521Z,100
2023-04-20T06:44:16.167Z,100
2023-04-20T06:47:16.242Z,100
2023-04-20T06:51:15.859Z,100
2023-04-20T06:54:16.349Z,100
2023-04-20T06:57:16.324Z,100
2023-04-20T07:01:16.078Z,100
2023-04-20T07:04:16.686Z,100
2023-04-20T07:07:16.690Z,100
2023-04-20T07:11:15.923Z,100
2023-04-20T07:14:16.193Z,100
2023-04-20T07:17:16.227Z,100
2023-04-20T07:21:16.179Z,100
2023-04-20T07:24:16.075Z,100
2023-04-20T07:27:16.160Z,100
2023-04-20T07:31:15.852Z,100
2023-04-20T07:34:16.057Z,100
2023-04-20T07:37:16.215Z,100
2023-04-20T07:41:16.021Z,100
2023-04-20T07:44:16.588Z,100
2023-04-20T07:47:16.618Z,100
2023-04-20T07:51:15.990Z,100
2023-04-20T07:54:16.112Z,100
2023-04-20T07:57:16.686Z,100
2023-04-20T08:01:16.248Z,100
2023-04-20T08:04:16.814Z,100
2023-04-20T08:07:16.608Z,100
2023-04-20T08:11:16.055Z,100
2023-04-20T08:14:16.731Z,100
2023-04-20T08:17:16.419Z,100
2023-04-20T08:21:16.216Z,100
2023-04-20T08:24:16.608Z,100
2023-04-20T08:27:16.082Z,100
2023-04-20T08:31:15.828Z,100
2023-04-20T08:34:16.156Z,99.8225175554507
2023-04-20T08:37:16.015Z,99.83200104041057
2023-04-20T08:41:16.877Z,99.37228174438397
2023-04-20T08:44:17.130Z,99.19560275380104
2023-04-20T08:47:16.987Z,99.30427385165395
2023-04-20T08:51:17.097Z,98.91513126881985
2023-04-20T08:54:17.470Z,98.64135171185836
2023-04-20T08:57:16.757Z,97.23997186907164
2023-04-20T09:01:34.685Z,97.2378856176905
2023-04-20T09:04:18.844Z,95.50337087405792
2023-04-20T09:07:17.732Z,95.9676822028671
2023-04-20T09:11:25.050Z,97.2546011050911
2023-04-20T09:14:18.310Z,96.01745825470927
2023-04-20T09:17:29.868Z,93.68848754058263
2023-04-20T09:21:16.214Z,92.86664618330538
2023-04-20T09:24:18.445Z,92.63103621981698
2023-04-20T09:27:18.147Z,92.94068211525152
2023-04-20T09:31:18.389Z,92.80213159813731
2023-04-20T09:34:17.085Z,93.03916587297643
2023-04-20T09:37:16.682Z,91.3617602268795
2023-04-20T09:41:17.697Z,90.14910727333681
2023-04-20T09:44:18.568Z,89.89112561400954
2023-04-20T09:47:17.071Z,88.53281769928984
2023-04-20T09:51:16.659Z,87.28252705675355
2023-04-20T09:54:16.834Z,87.6736767708713
2023-04-20T09:57:17.057Z,85.26514423487968
2023-04-20T10:01:15.859Z,84.30928092284195
2023-04-20T10:04:16.998Z,85.44750340584075
2023-04-20T10:07:23.141Z,85.960935034591
2023-04-20T10:11:44.444Z,84.1103607204047
2023-04-20T10:14:18.781Z,83.8585477752597
2023-04-20T10:17:28.505Z,82.11298546996791
2023-04-20T10:21:16.432Z,82.4067860898502
2023-04-20T10:24:28.998Z,82.25542634568372
2023-04-20T10:27:17.978Z,80.28793027427113
2023-04-20T10:31:16.918Z,79.19934107092686
2023-04-20T10:34:28.193Z,78.42228314828557
2023-04-20T10:37:16.733Z,80.49426130906303
2023-04-20T10:41:15.854Z,78.22807171973466
2023-04-20T10:44:16.904Z,75.9306233605178
2023-04-20T10:47:16.974Z,75.55567959549542
2023-04-20T10:51:17.342Z,75.35370253568898
2023-04-20T10:54:18.415Z,74.87130589729797
2023-04-20T10:57:16.601Z,74.5589034893238
2023-04-20T11:01:16.104Z,73.07661618923332
2023-04-20T11:04:18.886Z,74.20923865964907
2023-04-20T11:07:16.849Z,74.26969401585795
2023-04-20T11:11:18.429Z,72.50368715288306
2023-04-20T11:14:16.093Z,71.65830565020443
2023-04-20T11:17:16.104Z,70.78484579539801
2023-04-20T11:21:16.537Z,69.52152759507396
2023-04-20T11:24:17.584Z,67.7106843657007
2023-04-20T11:27:20.167Z,67.96215553922275
2023-04-20T11:31:16.493Z,66.48358292639783
2023-04-20T11:34:16.921Z,66.25157168265605
2023-04-20T11:37:16.361Z,65.55017607469578
2023-04-20T11:41:16.389Z,64.25443930461047
2023-04-20T11:44:16.154Z,63.81297901799463
2023-04-20T11:47:15.847Z,62.399710454833894
2023-04-20T11:51:16.002Z,63.574826429434616
2023-04-20T11:54:17.136Z,62.1541879529785
2023-04-20T11:57:16.699Z,61.63558294016532
2023-04-20T12:01:17.146Z,63.01921964301646
2023-04-20T12:04:17.353Z,63.51128061020723
2023-04-20T12:07:17.153Z,60.995118893762836
2023-04-20T12:11:16.917Z,60.060199101199665
2023-04-20T12:14:16.518Z,59.4308160763111
2023-04-20T12:17:16.399Z,57.23507756133083
2023-04-20T12:21:16.618Z,58.06611326387794
2023-04-20T12:24:16.736Z,57.6397293866258
2023-04-20T12:27:16.898Z,56.6498328363153
2023-04-20T12:31:16.268Z,57.250232106341535
2023-04-20T12:34:16.936Z,57.89162279462477
2023-04-20T12:37:16.617Z,57.217355734640655
2023-04-20T12:41:16.708Z,56.50790929683182
2023-04-20T12:44:17.791Z,54.48293280982757
2023-04-20T12:47:16.588Z,54.28738836340175
2023-04-20T12:51:15.988Z,55.05401159344475
2023-04-20T12:54:16.562Z,55.03285878263381
2023-04-20T12:57:16.127Z,53.09842116357422
2023-04-20T13:01:15.876Z,54.262171005411865
2023-04-20T13:04:16.540Z,53.38415080856254
2023-04-20T13:07:16.120Z,52.84084342894475
2023-04-20T13:11:17.386Z,51.713697456682105
2023-04-20T13:14:17.103Z,52.1709674999074
2023-04-20T13:17:17.051Z,51.07789123192639
2023-04-20T13:21:16.055Z,49.83270582638771
2023-04-20T13:24:16.963Z,50.22991947265118
2023-04-20T13:27:16.417Z,49.94738328822051
2023-04-20T13:31:17.485Z,49.37703621191612
2023-04-20T13:34:18.264Z,48.501136938299574
2023-04-20T13:37:18.176Z,49.13947947006031
2023-04-20T13:41:15.892Z,49.437954777740025
2023-04-20T13:44:16.337Z,51.354676072517265
2023-04-20T13:47:16.333Z,52.507070955830734
2023-04-20T13:51:16.543Z,51.78334517647951
2023-04-20T13:54:17.119Z,50.7547670924966
2023-04-20T13:57:17.196Z,50.00644998074862
2023-04-20T14:01:17.445Z,50.737048637160875
2023-04-20T14:04:17.910Z,51.99819472069891
2023-04-20T14:07:17.397Z,51.941941191124975
2023-04-20T14:11:16.254Z,51.81565107586334
2023-04-20T14:14:16.916Z,51.17628651372115
2023-04-20T14:17:16.700Z,50.024549860571234
2023-04-20T14:21:15.749Z,50.68703851596984
2023-04-20T14:24:16.487Z,49.84620783370031
2023-04-20T14:27:16.074Z,50.313065698545074
2023-04-20T14:31:16.801Z,51.60723859769574
2023-04-20T14:34:17.441Z,51.84506844151786
2023-04-20T14:37:17.092Z,51.892710630713374
2023-04-20T14:41:17.276Z,49.88242411905096
2023-04-20T14:44:17.298Z,50.60747871245678
2023-04-20T14:47:16.966Z,51.499208764022235
2023-04-20T14:51:16.455Z,50.62414135064127
2023-04-20T14:54:17.186Z,50.8035734692338
2023-04-20T14:57:16.865Z,51.362436604132675
2023-04-20T15:01:15.697Z,51.24152922913198
2023-04-20T15:04:16.361Z,50.93112481012407
2023-04-20T15:07:16.219Z,51.66811851551004
2023-04-20T15:11:16.521Z,51.65006428358059
2023-04-20T15:14:17.261Z,51.89636058292596
2023-04-20T15:17:16.959Z,51.76965750111294
2023-04-20T15:21:16.388Z,51.91717400388756
2023-04-20T15:24:17.310Z,52.677008616725495
2023-04-20T15:27:17.534Z,52.62464067299243
2023-04-20T15:31:17.038Z,51.150206558247845
2023-04-20T15:34:17.647Z,50.902947077241514
2023-04-20T15:37:16.144Z,50.85657525977762
2023-04-20T15:41:16.532Z,51.18244483780685
2023-04-20T15:44:17.150Z,49.593712492340366
2023-04-20T15:47:16.850Z,50.49106869185717
2023-04-20T15:51:15.697Z,52.227247535096765
2023-04-20T15:54:16.282Z,52.269094527714124
2023-04-20T15:57:16.274Z,52.63019836212821
2023-04-20T16:01:16.130Z,52.44116571509849
2023-04-20T16:04:16.883Z,52.58127665492549
2023-04-20T16:07:16.419Z,52.51338840040703
2023-04-20T16:11:16.034Z,51.76737566493116
2023-04-20T16:14:16.826Z,52.50932399173991
2023-04-20T16:17:16.888Z,53.07881870989055
2023-04-20T16:21:16.186Z,52.26707765358043
2023-04-20T16:24:16.816Z,52.38715099538487
2023-04-20T16:27:16.808Z,53.130470162232406
2023-04-20T16:31:15.637Z,53.34912386122167
2023-04-20T16:34:16.142Z,53.038124902017636
2023-04-20T16:37:15.886Z,53.58956712230878
2023-04-20T16:41:16.769Z,54.21559489365265
2023-04-20T16:44:17.269Z,53.640973181976555
2023-04-20T16:47:16.773Z,53.55854822211497
2023-04-20T16:51:15.574Z,54.21779459417332
2023-04-20T16:54:18.787Z,54.47031179215226
2023-04-20T16:57:17.075Z,54.17652259317885
2023-04-20T17:01:16.176Z,54.71487089349536
2023-04-20T17:04:18.543Z,55.55775396732787
2023-04-20T17:07:16.519Z,55.321800858625565
2023-04-20T17:11:18.286Z,55.63505195366824
2023-04-20T17:14:17.856Z,54.741990558515965
2023-04-20T17:17:16.979Z,54.05438354895399
2023-04-20T17:21:16.195Z,54.33967583945663
2023-04-20T17:24:17.968Z,54.61661015004756
2023-04-20T17:27:18.669Z,54.15431916269923
2023-04-20T17:31:16.218Z,54.51043699594355
2023-04-20T17:34:17.823Z,54.29534851120303
2023-04-20T17:37:16.723Z,54.4698769546035
2023-04-20T17:41:16.239Z,54.498769470411084
2023-04-20T17:44:16.672Z,54.998727294323
2023-04-20T17:47:16.573Z,55.36807513576129
2023-04-20T17:51:15.797Z,55.630504165707016
2023-04-20T17:54:16.583Z,55.71452004432127
2023-04-20T17:57:16.301Z,56.06575130118462
2023-04-20T18:01:16.041Z,56.69412551310448
2023-04-20T18:04:16.613Z,57.18190184181349
2023-04-20T18:07:17.170Z,57.26990602313774
2023-04-20T18:11:16.706Z,57.58459656777898
2023-04-20T18:14:16.951Z,58.04838380784202
2023-04-20T18:17:16.610Z,58.187397082475584
2023-04-20T18:21:16.423Z,58.85440747815713
2023-04-20T18:24:17.036Z,58.99936992413467
2023-04-20T18:27:17.192Z,61.10377189635085
2023-04-20T18:31:16.631Z,61.67991105527985
2023-04-20T18:34:16.984Z,61.534009701903265
2023-04-20T18:37:16.912Z,62.32917292436803
2023-04-20T18:41:17.111Z,62.32398768688188
2023-04-20T18:44:17.068Z,62.62933459289016
2023-04-20T18:47:18.974Z,63.165636124199295
2023-04-20T18:51:16.478Z,63.59813472538819
2023-04-20T18:54:17.362Z,63.63395932613024
2023-04-20T18:57:16.784Z,63.812603324584174
2023-04-20T19:01:16.929Z,64.22258289599519
2023-04-20T19:04:17.820Z,64.6604176318411
2023-04-20T19:07:17.272Z,64.62840955188376
2023-04-20T19:11:16.473Z,65.3584189914162
2023-04-20T19:14:16.775Z,65.80316099402593
2023-04-20T19:17:16.734Z,65.82753087898685
2023-04-20T19:21:15.528Z,66.69227779023153
2023-04-20T19:24:16.184Z,66.64850430056545
2023-04-20T19:27:16.489Z,67.18240568982984
2023-04-20T19:31:16.349Z,67.59051001269967
2023-04-20T19:34:18.728Z,67.93215523051389
2023-04-20T19:37:16.814Z,68.52201878807477
2023-04-20T19:41:15.996Z,68.86145056860911
2023-04-20T19:44:17.495Z,68.80638503551974
2023-04-20T19:47:16.334Z,69.18046252558078
2023-04-20T19:51:16.372Z,69.56483323764502
2023-04-20T19:54:18.454Z,69.83921843881812
2023-04-20T19:57:16.161Z,69.96363640864037
2023-04-20T20:01:17.333Z,69.8816534136777
2023-04-20T20:04:17.173Z,70.21034187911744
2023-04-20T20:07:17.742Z,70.25884145528796
2023-04-20T20:11:16.405Z,70.39400001551945
2023-04-20T20:14:17.565Z,70.31237968826427
2023-04-20T20:17:19.124Z,70.55952546625373
2023-04-20T20:21:15.962Z,70.83800553667865
2023-04-20T20:24:16.413Z,70.94693416344863
2023-04-20T20:27:16.190Z,71.42187064219478
2023-04-20T20:31:15.629Z,71.95807884891289
2023-04-20T20:34:16.455Z,72.12456622710988
2023-04-20T20:37:16.580Z,72.46334984316465
2023-04-20T20:41:18.867Z,73.1043974236961
2023-04-20T20:44:17.818Z,73.54688182045801
2023-04-20T20:47:16.503Z,73.90853241601003
2023-04-20T20:51:16.380Z,74.21852400586087
2023-04-20T20:54:16.823Z,74.24190552884892
2023-04-20T20:57:16.795Z,73.76566294980032
2023-04-20T21:01:16.386Z,73.69819871999557
2023-04-20T21:04:16.952Z,73.35699959403645
2023-04-20T21:07:16.790Z,73.51495231053511
2023-04-20T21:11:16.051Z,73.68720026549828
2023-04-20T21:14:16.621Z,74.17147061557179
2023-04-20T21:17:16.423Z,75.02987678316317
2023-04-20T21:21:16.519Z,75.38156418329025
2023-04-20T21:24:16.162Z,75.82227689372131
2023-04-20T21:27:16.088Z,76.31190945939804
2023-04-20T21:31:16.192Z,76.64105969064103
2023-04-20T21:34:16.529Z,76.52855364140095
2023-04-20T21:37:16.549Z,76.64524288500542
2023-04-20T21:41:15.984Z,76.81708048771367
2023-04-20T21:44:16.309Z,77.18345108827783
2023-04-20T21:47:16.259Z,77.47885937627561
2023-04-20T21:51:16.822Z,77.78353345585367
2023-04-20T21:54:16.470Z,77.7351622158431
2023-04-20T21:57:16.380Z,77.59758159581094
2023-04-20T22:01:16.345Z,77.11450160289654
2023-04-20T22:04:17.225Z,77.44106425402684
2023-04-20T22:07:17.600Z,78.38644269481806
2023-04-20T22:11:16.368Z,78.97559181923404
2023-04-20T22:14:16.838Z,79.27242983404571
2023-04-20T22:17:16.498Z,79.86672190938505
2023-04-20T22:21:16.075Z,79.85943591703689
2023-04-20T22:24:16.277Z,79.86149713707765
2023-04-20T22:27:16.315Z,79.67561926886214
2023-04-20T22:31:16.368Z,79.42310730772225
2023-04-20T22:34:16.671Z,79.39580734123702
2023-04-20T22:37:16.758Z,79.4256859465858
2023-04-20T22:41:17.489Z,79.20177081027926
2023-04-20T22:44:16.669Z,79.83570189873605
2023-04-20T22:47:16.863Z,79.79052457015753
2023-04-20T22:51:17.376Z,79.90712719032993
2023-04-20T22:54:16.386Z,80.22340321908892
2023-04-20T22:57:17.926Z,80.16716096099019
2023-04-20T23:01:16.189Z,80.8596977759791
2023-04-20T23:04:16.572Z,80.54290559688675
2023-04-20T23:07:17.889Z,80.88174893804137
2023-04-20T23:11:16.343Z,80.731499146975
2023-04-20T23:14:16.717Z,80.63846522687403
2023-04-20T23:17:17.089Z,80.90151521842925
2023-04-20T23:21:15.993Z,81.67282589549707
2023-04-20T23:24:16.048Z,81.7973161196325
2023-04-20T23:27:16.087Z,82.17807237950689
2023-04-20T23:31:16.134Z,82.24932837929623
2023-04-20T23:34:16.135Z,82.59087584258519
2023-04-20T23:37:16.441Z,82.38186811836461
2023-04-20T23:41:16.305Z,82.52584925765855
2023-04-20T23:44:16.582Z,82.77944747261202
2023-04-20T23:47:17.639Z,83.01459974897594
2023-04-20T23:51:15.439Z,83.36936431804337
2023-04-20T23:54:15.834Z,83.64502736982702
2023-04-20T23:57:15.910Z,83.56655786760933
